Time;durP1;ratioP1;P1;durP2;ratioP2;P2;SDS_P1;SDS_P2;PMS_P1;PMS_P2;Temp;Humidity;BMP_temperature;BMP_pressure;BME280_temperature;BME280_humidity;BME280_pressure;Samples;Min_cycle;Max_cycle;Signal;HPM_P1;HPM_P2
2022/09/19 00:01:38;;;;;;;3.53;1.60;;;;;;;;;;5075203;28;20449;-58
2022/09/19 00:04:07;;;;;;;2.40;1.60;;;;;;;;;;5075211;28;20483;-58
2022/09/19 00:06:36;;;;;;;2.63;2.43;;;;;;;;;;5075563;28;20856;-58
2022/09/19 00:09:04;;;;;;;5.07;1.80;;;;;;;;;;5075624;28;20459;-58
2022/09/19 00:11:31;;;;;;;1.73;1.63;;;;;;;;;;5075329;28;20458;-58
2022/09/19 00:13:59;;;;;;;5.23;2.10;;;;;;;;;;5075286;28;20520;-58
2022/09/19 00:16:27;;;;;;;2.07;1.50;;;;;;;;;;5075219;28;20440;-58
2022/09/19 00:18:56;;;;;;;1.30;1.20;;;;;;;;;;5075016;28;20447;-58
2022/09/19 00:21:25;;;;;;;3.37;1.53;;;;;;;;;;5075186;28;20838;-58
2022/09/19 00:26:38;;;;;;;3.77;1.93;;;;;;;;;;5074974;28;20925;-57
2022/09/19 00:29:06;;;;;;;4.43;1.53;;;;;;;;;;5074862;28;20450;-58
2022/09/19 00:31:33;;;;;;;3.20;2.00;;;;;;;;;;5074796;28;20961;-58
2022/09/19 00:34:03;;;;;;;2.37;1.70;;;;;;;;;;5074726;28;20998;-58
2022/09/19 00:36:31;;;;;;;3.90;1.73;;;;;;;;;;5074809;28;20873;-57
2022/09/19 00:38:59;;;;;;;2.50;1.80;;;;;;;;;;5075000;28;20538;-58
2022/09/19 00:41:26;;;;;;;3.17;1.90;;;;;;;;;;5074587;28;20973;-58
2022/09/19 00:43:54;;;;;;;5.50;1.87;;;;;;;;;;5074442;28;20565;-58
2022/09/19 00:46:22;;;;;;;2.97;1.70;;;;;;;;;;5074718;28;20447;-59
2022/09/19 00:48:52;;;;;;;3.53;1.87;;;;;;;;;;5074342;28;21020;-58
2022/09/19 00:51:21;;;;;;;4.60;2.30;;;;;;;;;;5074560;28;20456;-59
2022/09/19 00:53:50;;;;;;;3.40;2.20;;;;;;;;;;5074359;28;20546;-59
2022/09/19 00:56:18;;;;;;;3.37;2.10;;;;;;;;;;5074253;28;20984;-58
2022/09/19 00:58:45;;;;;;;7.00;3.00;;;;;;;;;;5074417;28;20935;-59
2022/09/19 01:01:13;;;;;;;2.43;1.90;;;;;;;;;;5074686;28;20447;-58
2022/09/19 01:03:40;;;;;;;4.57;2.07;;;;;;;;;;5074282;28;20472;-59
2022/09/19 01:06:13;;;;;;;4.30;2.30;;;;;;;;;;5074092;28;20447;-59
2022/09/19 01:08:48;;;;;;;4.63;2.87;;;;;;;;;;5074053;28;20447;-59
2022/09/19 01:11:30;;;;;;;4.17;2.30;;;;;;;;;;5074166;28;20539;-59
2022/09/19 01:14:06;;;;;;;7.57;2.60;;;;;;;;;;5073427;28;20457;-59
2022/09/19 01:16:37;;;;;;;2.20;2.00;;;;;;;;;;5073972;28;20451;-59
2022/09/19 01:19:09;;;;;;;2.90;2.43;;;;;;;;;;5073907;28;20939;-59
2022/09/19 01:21:41;;;;;;;2.47;2.27;;;;;;;;;;5074067;28;20798;-59
2022/09/19 01:24:30;;;;;;;3.60;2.10;;;;;;;;;;5073893;28;20505;-59
2022/09/19 01:27:21;;;;;;;2.90;2.57;;;;;;;;;;5074231;28;20527;-58
2022/09/19 01:29:51;;;;;;;2.90;2.80;;;;;;;;;;5035238;28;20464;-59
2022/09/19 01:32:21;;;;;;;3.27;2.43;;;;;;;;;;5073734;28;20447;-59
2022/09/19 01:34:51;;;;;;;5.60;2.70;;;;;;;;;;5073719;28;20452;-59
2022/09/19 01:37:19;;;;;;;3.37;2.30;;;;;;;;;;5073615;28;20816;-59
2022/09/19 01:39:47;;;;;;;3.20;2.87;;;;;;;;;;5073498;28;20526;-59
2022/09/19 01:42:14;;;;;;;4.03;2.73;;;;;;;;;;5073608;28;20444;-59
2022/09/19 01:44:41;;;;;;;8.37;3.20;;;;;;;;;;5073387;28;20483;-59
2022/09/19 01:47:15;;;;;;;3.33;2.80;;;;;;;;;;5073310;28;20475;-59
2022/09/19 01:49:46;;;;;;;6.63;3.20;;;;;;;;;;5073364;28;20451;-59
2022/09/19 01:52:17;;;;;;;4.60;2.90;;;;;;;;;;5073315;28;20457;-59
2022/09/19 01:54:49;;;;;;;3.87;2.87;;;;;;;;;;5073177;28;20458;-59
2022/09/19 01:57:20;;;;;;;4.83;3.20;;;;;;;;;;5073396;28;20457;-58
2022/09/19 02:00:00;;;;;;;3.60;3.17;;;;;;;;;;5073292;28;20458;-59
2022/09/19 02:02:35;;;;;;;3.23;2.97;;;;;;;;;;5073218;28;20546;-59
2022/09/19 02:05:06;;;;;;;4.33;3.20;;;;;;;;;;5072975;28;20514;-59
2022/09/19 02:07:44;;;;;;;3.57;3.27;;;;;;;;;;5073327;28;20466;-59
2022/09/19 02:10:15;;;;;;;3.40;3.10;;;;;;;;;;5073188;28;20541;-59
2022/09/19 02:12:43;;;;;;;3.67;3.37;;;;;;;;;;5073154;28;20818;-58
2022/09/19 02:15:12;;;;;;;4.17;3.73;;;;;;;;;;5072983;28;20799;-58
2022/09/19 02:17:44;;;;;;;3.47;3.17;;;;;;;;;;5072849;28;20487;-58
2022/09/19 02:20:13;;;;;;;3.90;3.57;;;;;;;;;;5073121;28;20497;-58
2022/09/19 02:22:47;;;;;;;3.37;3.10;;;;;;;;;;5073009;28;20961;-58
2022/09/19 02:25:15;;;;;;;6.47;4.40;;;;;;;;;;5072861;28;20516;-58
2022/09/19 02:27:50;;;;;;;5.80;4.20;;;;;;;;;;5072882;28;20542;-58
2022/09/19 02:30:19;;;;;;;4.33;3.90;;;;;;;;;;5072793;28;20980;-58
2022/09/19 02:32:48;;;;;;;4.00;3.60;;;;;;;;;;5072938;28;20542;-58
2022/09/19 02:35:16;;;;;;;5.53;3.97;;;;;;;;;;5072850;28;20451;-58
2022/09/19 02:37:47;;;;;;;3.33;3.13;;;;;;;;;;5072768;28;20546;-57
2022/09/19 02:40:17;;;;;;;3.53;3.17;;;;;;;;;;5072727;28;20463;-57
2022/09/19 02:42:47;;;;;;;6.40;3.60;;;;;;;;;;5072893;28;20864;-58
2022/09/19 02:45:17;;;;;;;4.97;3.67;;;;;;;;;;5072759;28;20582;-58
2022/09/19 02:47:50;;;;;;;5.40;3.07;;;;;;;;;;5072611;28;20662;-58
2022/09/19 02:50:21;;;;;;;3.90;3.37;;;;;;;;;;5072837;28;20933;-58
2022/09/19 02:52:49;;;;;;;5.03;3.43;;;;;;;;;;5073060;28;20452;-58
2022/09/19 02:55:18;;;;;;;3.27;2.97;;;;;;;;;;5072502;28;20922;-58
2022/09/19 02:57:48;;;;;;;3.60;3.30;;;;;;;;;;5072625;28;20859;-58
2022/09/19 03:00:16;;;;;;;5.63;3.00;;;;;;;;;;5072667;28;20785;-58
2022/09/19 03:02:45;;;;;;;5.07;2.97;;;;;;;;;;5072575;28;20802;-57
2022/09/19 03:05:15;;;;;;;4.70;2.90;;;;;;;;;;5072392;28;20574;-58
2022/09/19 03:07:44;;;;;;;3.53;3.10;;;;;;;;;;5072387;28;20542;-58
2022/09/19 03:10:13;;;;;;;3.53;3.23;;;;;;;;;;5072559;28;20453;-58
2022/09/19 03:12:42;;;;;;;5.80;4.63;;;;;;;;;;5072518;28;20800;-58
2022/09/19 03:15:09;;;;;;;5.97;3.90;;;;;;;;;;5072411;28;20474;-58
2022/09/19 03:17:39;;;;;;;4.30;3.10;;;;;;;;;;5072452;28;20530;-58
2022/09/19 03:20:11;;;;;;;3.77;3.00;;;;;;;;;;5072218;28;20458;-58
2022/09/19 03:22:38;;;;;;;4.10;3.23;;;;;;;;;;5072483;28;20451;-58
2022/09/19 03:25:07;;;;;;;11.13;3.10;;;;;;;;;;5072338;28;20482;-58
2022/09/19 03:27:36;;;;;;;2.80;2.60;;;;;;;;;;5072329;28;20451;-58
2022/09/19 03:30:04;;;;;;;3.67;3.10;;;;;;;;;;5072295;28;20452;-58
2022/09/19 03:32:31;;;;;;;4.20;3.90;;;;;;;;;;5072076;28;20960;-59
2022/09/19 03:34:58;;;;;;;6.43;4.07;;;;;;;;;;5072300;28;20544;-59
2022/09/19 03:37:25;;;;;;;4.63;3.53;;;;;;;;;;5075416;28;20451;-58
2022/09/19 03:39:52;;;;;;;3.60;3.30;;;;;;;;;;5075861;28;20451;-58
2022/09/19 03:42:21;;;;;;;7.10;5.37;;;;;;;;;;5075777;28;20447;-58
2022/09/19 03:44:48;;;;;;;4.17;3.77;;;;;;;;;;5075653;28;20482;-58
2022/09/19 03:47:15;;;;;;;4.37;3.60;;;;;;;;;;5075404;28;20479;-59
2022/09/19 03:49:43;;;;;;;3.90;3.53;;;;;;;;;;5075736;28;20443;-59
2022/09/19 03:52:10;;;;;;;4.33;3.50;;;;;;;;;;5075604;28;20452;-58
2022/09/19 03:54:38;;;;;;;5.60;4.33;;;;;;;;;;5075544;28;20764;-58
2022/09/19 03:57:06;;;;;;;4.43;3.80;;;;;;;;;;5075490;28;20436;-58
2022/09/19 03:59:36;;;;;;;4.17;3.87;;;;;;;;;;5075465;28;20448;-59
2022/09/19 04:02:03;;;;;;;8.07;4.17;;;;;;;;;;5075957;28;20849;-58
2022/09/19 04:04:30;;;;;;;4.77;4.20;;;;;;;;;;5075768;28;20478;-59
2022/09/19 04:06:57;;;;;;;3.77;3.47;;;;;;;;;;5075391;28;20458;-58
2022/09/19 04:09:25;;;;;;;4.43;4.10;;;;;;;;;;5075305;28;20490;-58
2022/09/19 04:11:52;;;;;;;4.70;4.23;;;;;;;;;;5075182;28;20447;-59
2022/09/19 04:14:19;;;;;;;10.23;5.60;;;;;;;;;;5075091;28;20868;-58
2022/09/19 04:16:47;;;;;;;4.93;4.53;;;;;;;;;;5075287;28;20451;-59
2022/09/19 04:19:15;;;;;;;5.80;5.30;;;;;;;;;;5075153;28;20447;-58
2022/09/19 04:21:42;;;;;;;5.20;4.70;;;;;;;;;;5075028;28;20443;-58
2022/09/19 04:24:09;;;;;;;5.20;4.77;;;;;;;;;;5074746;28;20943;-58
2022/09/19 04:26:36;;;;;;;6.80;5.70;;;;;;;;;;5074799;28;20500;-58
2022/09/19 04:29:03;;;;;;;6.10;5.60;;;;;;;;;;5075305;28;20455;-59
2022/09/19 04:31:37;;;;;;;7.20;5.47;;;;;;;;;;5074912;28;20485;-58
2022/09/19 04:34:06;;;;;;;5.00;4.57;;;;;;;;;;5074963;28;20853;-58
2022/09/19 04:36:33;;;;;;;5.53;5.00;;;;;;;;;;5074689;28;20807;-58
2022/09/19 04:39:02;;;;;;;6.90;5.37;;;;;;;;;;5074459;28;20454;-59
2022/09/19 04:41:30;;;;;;;6.33;4.63;;;;;;;;;;5074437;28;20455;-59
2022/09/19 04:43:57;;;;;;;5.80;5.17;;;;;;;;;;5074668;28;20455;-59
2022/09/19 04:46:24;;;;;;;6.53;5.30;;;;;;;;;;5074517;28;20482;-58
2022/09/19 04:48:54;;;;;;;5.97;5.47;;;;;;;;;;5073478;28;20475;-58
2022/09/19 04:51:23;;;;;;;10.30;5.30;;;;;;;;;;5074463;28;20454;-58
2022/09/19 04:53:51;;;;;;;5.93;5.20;;;;;;;;;;5074116;28;20448;-58
2022/09/19 04:56:18;;;;;;;9.43;5.73;;;;;;;;;;5074473;28;20508;-58
2022/09/19 04:58:45;;;;;;;5.57;5.07;;;;;;;;;;5074300;28;20497;-58
2022/09/19 05:01:14;;;;;;;5.70;5.30;;;;;;;;;;5074233;28;20447;-58
2022/09/19 05:03:43;;;;;;;5.27;4.87;;;;;;;;;;5074148;28;20817;-57
2022/09/19 05:06:11;;;;;;;6.40;5.80;;;;;;;;;;5074254;28;20514;-58
2022/09/19 05:08:40;;;;;;;10.70;5.83;;;;;;;;;;5074119;28;20452;-58
2022/09/19 05:11:08;;;;;;;6.00;5.37;;;;;;;;;;5074203;28;20785;-58
2022/09/19 05:13:37;;;;;;;6.67;5.97;;;;;;;;;;5073985;28;20970;-57
2022/09/19 05:16:04;;;;;;;6.70;5.70;;;;;;;;;;5073748;28;20480;-57
2022/09/19 05:18:34;;;;;;;6.60;5.83;;;;;;;;;;5073883;28;20536;-57
2022/09/19 05:21:03;;;;;;;6.80;5.90;;;;;;;;;;5074058;28;20452;-58
2022/09/19 05:23:30;;;;;;;7.03;5.60;;;;;;;;;;5073934;28;20451;-58
2022/09/19 05:26:02;;;;;;;6.20;5.73;;;;;;;;;;5073837;28;20549;-58
2022/09/19 05:28:29;;;;;;;6.27;5.63;;;;;;;;;;5073667;28;20451;-58
2022/09/19 05:30:56;;;;;;;6.30;5.70;;;;;;;;;;5073522;28;20555;-58
2022/09/19 05:33:26;;;;;;;6.00;5.50;;;;;;;;;;5073570;28;20508;-58
2022/09/19 05:35:53;;;;;;;6.53;4.90;;;;;;;;;;5073466;28;20448;-58
2022/09/19 05:38:20;;;;;;;5.80;5.40;;;;;;;;;;5073423;28;20447;-58
2022/09/19 05:40:47;;;;;;;7.17;5.17;;;;;;;;;;5073438;28;20479;-58
2022/09/19 05:43:15;;;;;;;5.60;5.20;;;;;;;;;;5073315;28;20506;-58
2022/09/19 05:45:42;;;;;;;5.63;4.77;;;;;;;;;;5073195;28;20471;-59
2022/09/19 05:48:10;;;;;;;5.43;5.00;;;;;;;;;;5073183;28;20502;-59
2022/09/19 05:50:37;;;;;;;5.63;5.17;;;;;;;;;;5073246;28;20451;-59
2022/09/19 05:55:49;;;;;;;5.07;4.60;;;;;;;;;;5073319;28;20435;-58
2022/09/19 05:58:17;;;;;;;5.23;4.87;;;;;;;;;;5072699;28;20883;-58
2022/09/19 06:00:44;;;;;;;5.57;5.07;;;;;;;;;;5073175;28;20455;-58
2022/09/19 06:03:16;;;;;;;6.77;5.27;;;;;;;;;;5073081;28;20543;-59
2022/09/19 06:05:43;;;;;;;5.50;4.30;;;;;;;;;;5072912;28;20552;-59
2022/09/19 06:08:11;;;;;;;8.27;5.57;;;;;;;;;;5072908;28;20451;-58
2022/09/19 06:10:39;;;;;;;6.00;5.40;;;;;;;;;;5072835;28;20966;-59
2022/09/19 06:13:06;;;;;;;5.60;5.20;;;;;;;;;;5072467;28;20447;-59
2022/09/19 06:15:35;;;;;;;7.03;4.87;;;;;;;;;;5072880;28;20530;-59
2022/09/19 06:18:02;;;;;;;5.43;5.00;;;;;;;;;;5072971;28;20449;-59
2022/09/19 06:20:29;;;;;;;5.30;4.80;;;;;;;;;;5072771;28;20533;-59
2022/09/19 06:23:00;;;;;;;12.13;6.03;;;;;;;;;;5072753;28;20444;-58
2022/09/19 06:25:27;;;;;;;5.30;4.70;;;;;;;;;;5072552;28;20475;-59
2022/09/19 06:27:54;;;;;;;5.87;5.20;;;;;;;;;;5072811;28;20651;-59
2022/09/19 06:30:22;;;;;;;5.80;5.30;;;;;;;;;;5072794;28;20953;-58
2022/09/19 06:32:50;;;;;;;6.43;5.30;;;;;;;;;;5072635;28;20455;-58
2022/09/19 06:35:18;;;;;;;6.30;5.80;;;;;;;;;;5072601;28;20534;-59
2022/09/19 06:37:45;;;;;;;7.13;5.30;;;;;;;;;;5072706;28;20457;-59
2022/09/19 06:40:12;;;;;;;10.43;6.03;;;;;;;;;;5072476;28;20451;-59
2022/09/19 06:42:39;;;;;;;5.40;4.90;;;;;;;;;;5072945;28;20505;-59
2022/09/19 06:45:07;;;;;;;8.63;5.03;;;;;;;;;;5072532;28;20489;-58
2022/09/19 06:47:35;;;;;;;6.17;5.53;;;;;;;;;;5072574;28;20558;-58
2022/09/19 06:50:04;;;;;;;6.20;5.40;;;;;;;;;;5071787;28;20857;-58
2022/09/19 06:52:31;;;;;;;5.13;4.60;;;;;;;;;;5052818;28;20194;-58
2022/09/19 06:54:58;;;;;;;6.20;4.77;;;;;;;;;;5055663;28;20452;-59
2022/09/19 06:57:25;;;;;;;5.37;4.10;;;;;;;;;;5052331;28;20456;-58
2022/09/19 06:59:52;;;;;;;7.80;4.63;;;;;;;;;;5052287;28;20940;-58
2022/09/19 07:02:21;;;;;;;5.53;4.70;;;;;;;;;;5052240;28;20448;-59
2022/09/19 07:04:49;;;;;;;4.77;4.30;;;;;;;;;;5060972;28;20466;-58
2022/09/19 07:07:17;;;;;;;4.50;4.20;;;;;;;;;;5052378;28;20476;-58
2022/09/19 07:09:44;;;;;;;7.03;4.30;;;;;;;;;;5052136;28;20448;-59
2022/09/19 07:12:11;;;;;;;4.10;3.20;;;;;;;;;;5055249;28;20538;-60
2022/09/19 07:14:40;;;;;;;4.50;3.73;;;;;;;;;;5055876;28;20462;-59
2022/09/19 07:17:07;;;;;;;4.17;3.87;;;;;;;;;;5056089;28;20448;-59
2022/09/19 07:19:34;;;;;;;4.20;3.53;;;;;;;;;;5055606;28;20444;-57
2022/09/19 07:22:01;;;;;;;4.60;3.10;;;;;;;;;;5056096;28;20448;-58
2022/09/19 07:24:29;;;;;;;5.87;5.40;;;;;;;;;;5056200;28;20448;-58
2022/09/19 07:26:56;;;;;;;11.23;10.23;;;;;;;;;;5055784;28;21028;-50
2022/09/19 07:29:23;;;;;;;6.17;3.70;;;;;;;;;;5055915;28;20478;-55
2022/09/19 07:31:50;;;;;;;3.30;3.03;;;;;;;;;;5055727;28;20890;-52
2022/09/19 07:34:17;;;;;;;3.20;2.80;;;;;;;;;;5055507;28;20463;-52
2022/09/19 07:36:44;;;;;;;3.83;3.27;;;;;;;;;;5055671;28;20526;-49
2022/09/19 07:39:11;;;;;;;4.33;3.07;;;;;;;;;;5055707;28;21061;-59
2022/09/19 07:41:40;;;;;;;6.93;2.87;;;;;;;;;;5055638;28;20492;-55
2022/09/19 07:44:07;;;;;;;3.10;2.80;;;;;;;;;;5055620;28;20565;-54
2022/09/19 07:46:33;;;;;;;4.90;3.10;;;;;;;;;;5055334;28;20484;-55
2022/09/19 07:49:00;;;;;;;2.97;2.70;;;;;;;;;;5054880;28;21029;-50
2022/09/19 07:51:30;;;;;;;3.43;2.63;;;;;;;;;;5055465;28;20448;-51
2022/09/19 07:53:57;;;;;;;2.57;2.37;;;;;;;;;;5055466;28;20823;-50
2022/09/19 07:56:24;;;;;;;6.30;1.80;;;;;;;;;;5055213;28;20505;-55
2022/09/19 07:58:52;;;;;;;5.30;2.60;;;;;;;;;;5055217;28;20488;-53
2022/09/19 08:01:19;;;;;;;5.53;1.90;;;;;;;;;;5054945;28;20448;-53
2022/09/19 08:03:47;;;;;;;4.13;2.90;;;;;;;;;;5055241;28;20462;-56
2022/09/19 08:06:14;;;;;;;3.33;2.70;;;;;;;;;;5070988;28;21035;-56
2022/09/19 08:08:41;;;;;;;2.57;2.00;;;;;;;;;;5075150;28;20458;-55
2022/09/19 08:11:08;;;;;;;3.17;2.13;;;;;;;;;;5075080;28;20447;-56
2022/09/19 08:13:35;;;;;;;2.40;2.20;;;;;;;;;;5074866;28;20534;-53
2022/09/19 08:16:03;;;;;;;2.50;1.83;;;;;;;;;;5074757;28;20802;-55
2022/09/19 08:18:31;;;;;;;1.90;1.80;;;;;;;;;;5075294;28;20448;-51
2022/09/19 08:20:57;;;;;;;5.40;1.77;;;;;;;;;;5074514;28;20447;-58
2022/09/19 08:23:26;;;;;;;2.17;1.90;;;;;;;;;;5074750;28;20537;-56
2022/09/19 08:25:55;;;;;;;3.13;1.40;;;;;;;;;;5074684;28;20471;-55
2022/09/19 08:28:22;;;;;;;3.13;1.43;;;;;;;;;;5074602;28;20451;-60
2022/09/19 08:30:49;;;;;;;2.13;1.50;;;;;;;;;;5074920;28;20455;-59
2022/09/19 08:33:18;;;;;;;2.23;1.30;;;;;;;;;;5074791;28;20819;-59
2022/09/19 08:35:46;;;;;;;2.63;1.57;;;;;;;;;;5074372;28;20455;-59
2022/09/19 08:38:13;;;;;;;1.50;1.40;;;;;;;;;;5074388;28;20443;-59
2022/09/19 08:40:56;;;;;;;1.93;1.60;;;;;;;;;;5074438;28;20483;-60
2022/09/19 08:43:26;;;;;;;1.43;1.33;;;;;;;;;;5074630;28;20456;-60
2022/09/19 08:46:05;;;;;;;1.63;1.20;;;;;;;;;;5074405;28;20471;-59
2022/09/19 08:48:38;;;;;;;1.87;1.20;;;;;;;;;;5074195;28;20864;-59
2022/09/19 08:51:07;;;;;;;1.47;1.37;;;;;;;;;;5074233;28;20458;-59
2022/09/19 08:53:37;;;;;;;1.73;1.23;;;;;;;;;;5074361;28;20802;-59
2022/09/19 08:56:04;;;;;;;1.50;1.40;;;;;;;;;;5074184;28;20451;-59
2022/09/19 08:58:34;;;;;;;1.70;1.40;;;;;;;;;;5073385;28;20447;-60
2022/09/19 09:01:01;;;;;;;1.30;1.20;;;;;;;;;;5073853;28;20448;-60
2022/09/19 09:03:35;;;;;;;3.50;1.30;;;;;;;;;;5074082;28;20538;-60
2022/09/19 09:06:12;;;;;;;2.27;1.43;;;;;;;;;;5073871;28;20834;-60
2022/09/19 09:08:41;;;;;;;2.50;1.00;;;;;;;;;;5074045;28;20542;-60
2022/09/19 09:11:12;;;;;;;1.40;1.30;;;;;;;;;;5073941;28;20485;-60
2022/09/19 09:13:44;;;;;;;9.07;1.80;;;;;;;;;;5073790;28;20453;-60
2022/09/19 09:16:16;;;;;;;1.93;1.20;;;;;;;;;;5073644;28;20443;-60
2022/09/19 09:18:47;;;;;;;3.60;1.00;;;;;;;;;;5073393;28;20998;-59
2022/09/19 09:21:19;;;;;;;2.40;1.10;;;;;;;;;;5073743;28;20443;-59
2022/09/19 09:23:49;;;;;;;1.67;1.03;;;;;;;;;;5073374;28;20462;-59
2022/09/19 09:26:17;;;;;;;1.23;0.90;;;;;;;;;;5073318;28;20510;-59
2022/09/19 09:28:47;;;;;;;1.33;0.90;;;;;;;;;;5073371;28;20454;-58
2022/09/19 09:31:19;;;;;;;1.00;0.90;;;;;;;;;;5073561;28;20546;-60
2022/09/19 09:33:53;;;;;;;3.20;1.33;;;;;;;;;;5073084;28;20807;-59
2022/09/19 09:36:23;;;;;;;1.00;0.90;;;;;;;;;;5073419;28;20454;-59
2022/09/19 09:38:53;;;;;;;1.73;0.80;;;;;;;;;;5073295;28;21010;-59
2022/09/19 09:44:24;;;;;;;1.20;0.80;;;;;;;;;;5037056;28;20428;-59
2022/09/19 09:46:54;;;;;;;2.03;0.90;;;;;;;;;;5073051;28;20475;-60
2022/09/19 09:49:22;;;;;;;7.30;1.70;;;;;;;;;;5073429;28;20451;-59
2022/09/19 09:51:57;;;;;;;0.70;0.70;;;;;;;;;;5072893;28;20807;-59
2022/09/19 09:57:21;;;;;;;1.13;0.87;;;;;;;;;;5073263;28;20447;-59
2022/09/19 10:05:33;;;;;;;3.30;1.30;;;;;;;;;;5072936;28;20465;-60
2022/09/19 10:08:07;;;;;;;1.43;0.80;;;;;;;;;;5072749;28;20489;-59
2022/09/19 10:10:35;;;;;;;0.80;0.80;;;;;;;;;;5072573;28;20478;-60
2022/09/19 10:13:05;;;;;;;3.73;0.90;;;;;;;;;;5072906;28;20450;-59
2022/09/19 10:15:32;;;;;;;1.23;0.93;;;;;;;;;;5073012;28;20807;-60
2022/09/19 10:18:06;;;;;;;0.77;0.77;;;;;;;;;;5072879;28;20452;-60
2022/09/19 10:20:36;;;;;;;1.63;0.80;;;;;;;;;;5072770;28;20450;-60
2022/09/19 10:23:04;;;;;;;1.73;1.03;;;;;;;;;;5072532;28;20448;-60
2022/09/19 10:25:31;;;;;;;3.75;1.05;;;;;;;;;;5072084;28;20533;-59
2022/09/19 10:28:02;;;;;;;3.23;0.80;;;;;;;;;;5072553;28;20221;-60
2022/09/19 10:30:31;;;;;;;1.67;0.80;;;;;;;;;;5072709;28;20493;-60
2022/09/19 10:32:58;;;;;;;3.20;0.90;;;;;;;;;;5072542;28;20530;-60
2022/09/19 10:35:27;;;;;;;3.07;1.30;;;;;;;;;;5072626;28;21009;-59
2022/09/19 10:37:54;;;;;;;2.10;0.93;;;;;;;;;;5072704;28;20784;-59
2022/09/19 10:40:25;;;;;;;1.47;1.00;;;;;;;;;;5072460;28;20880;-59
2022/09/19 10:42:52;;;;;;;2.27;1.33;;;;;;;;;;5072327;28;20447;-51
2022/09/19 10:45:25;;;;;;;0.90;0.77;;;;;;;;;;5072551;28;20550;-52
2022/09/19 10:47:54;;;;;;;1.70;0.90;;;;;;;;;;5076308;28;20487;-59
2022/09/19 10:50:22;;;;;;;3.77;1.60;;;;;;;;;;5076714;28;20487;-59
2022/09/19 10:52:49;;;;;;;1.33;0.80;;;;;;;;;;5076830;28;20443;-59
2022/09/19 10:55:20;;;;;;;1.23;0.80;;;;;;;;;;5076641;28;20479;-58
2022/09/19 10:57:50;;;;;;;1.83;1.10;;;;;;;;;;5076372;28;20475;-54
2022/09/19 11:00:24;;;;;;;2.00;1.17;;;;;;;;;;5076392;28;20447;-55
2022/09/19 11:03:02;;;;;;;2.40;0.70;;;;;;;;;;5076190;28;20620;-59
2022/09/19 11:05:30;;;;;;;1.27;0.70;;;;;;;;;;5076456;28;20862;-55
2022/09/19 11:07:59;;;;;;;1.67;0.90;;;;;;;;;;5076327;28;20482;-55
2022/09/19 11:10:37;;;;;;;2.47;0.80;;;;;;;;;;5076092;28;20819;-56
2022/09/19 11:13:15;;;;;;;1.60;0.77;;;;;;;;;;5076267;28;20450;-56
2022/09/19 11:16:09;;;;;;;2.20;0.70;;;;;;;;;;5076174;28;20447;-54
2022/09/19 11:18:54;;;;;;;1.20;1.00;;;;;;;;;;5051427;28;20525;-55
2022/09/19 11:21:28;;;;;;;1.63;0.90;;;;;;;;;;5075704;28;20455;-56
2022/09/19 11:24:06;;;;;;;1.10;0.80;;;;;;;;;;5075820;28;20459;-57
2022/09/19 11:26:39;;;;;;;1.30;1.17;;;;;;;;;;5075926;28;20550;-60
2022/09/19 11:29:23;;;;;;;2.40;1.30;;;;;;;;;;5076176;28;20456;-60
2022/09/19 11:32:03;;;;;;;1.93;1.83;;;;;;;;;;5075587;28;20821;-61
2022/09/19 11:34:35;;;;;;;1.20;1.10;;;;;;;;;;5075698;28;20438;-61
2022/09/19 11:37:07;;;;;;;1.53;1.43;;;;;;;;;;5075680;28;20451;-60
2022/09/19 11:39:42;;;;;;;1.80;1.70;;;;;;;;;;5075597;28;20942;-60
2022/09/19 11:42:17;;;;;;;1.57;1.00;;;;;;;;;;5075276;28;20958;-61
2022/09/19 11:44:52;;;;;;;1.63;1.17;;;;;;;;;;5073521;28;20443;-61
2022/09/19 11:47:25;;;;;;;1.10;1.00;;;;;;;;;;5073236;28;20845;-61
2022/09/19 11:50:07;;;;;;;1.10;0.90;;;;;;;;;;5075652;28;20517;-60
2022/09/19 11:52:41;;;;;;;0.90;0.80;;;;;;;;;;5075311;28;20475;-59
2022/09/19 11:55:16;;;;;;;2.57;1.87;;;;;;;;;;5075306;28;20452;-58
2022/09/19 11:57:47;;;;;;;3.67;1.20;;;;;;;;;;5074884;28;20450;-59
2022/09/19 12:00:17;;;;;;;0.90;0.80;;;;;;;;;;5075368;28;20477;-60
2022/09/19 12:03:05;;;;;;;1.10;0.90;;;;;;;;;;5075211;28;20534;-59
2022/09/19 12:05:38;;;;;;;1.10;0.83;;;;;;;;;;5071769;28;20454;-61
2022/09/19 12:08:12;;;;;;;0.90;0.90;;;;;;;;;;5075254;28;20489;-60
2022/09/19 12:10:43;;;;;;;1.00;0.90;;;;;;;;;;5075176;28;20538;-59
2022/09/19 12:13:14;;;;;;;1.10;1.00;;;;;;;;;;5074853;28;20458;-60
2022/09/19 12:15:46;;;;;;;1.00;0.90;;;;;;;;;;5074962;28;20854;-60
2022/09/19 12:18:16;;;;;;;0.83;0.80;;;;;;;;;;5074894;28;20973;-59
2022/09/19 12:20:45;;;;;;;2.07;1.47;;;;;;;;;;5074698;28;20795;-60
2022/09/19 12:26:00;;;;;;;1.00;0.90;;;;;;;;;;5074665;28;20485;-59
2022/09/19 12:28:30;;;;;;;0.90;0.80;;;;;;;;;;5074706;28;20483;-59
2022/09/19 12:31:02;;;;;;;1.10;1.00;;;;;;;;;;5074500;28;20451;-59
2022/09/19 12:33:32;;;;;;;1.23;0.97;;;;;;;;;;5074504;28;20799;-59
2022/09/19 12:36:04;;;;;;;2.30;0.80;;;;;;;;;;5074453;28;20796;-59
2022/09/19 12:38:35;;;;;;;3.07;0.70;;;;;;;;;;5074390;28;20447;-59
2022/09/19 12:41:07;;;;;;;0.90;0.60;;;;;;;;;;5073733;28;20518;-59
2022/09/19 12:43:38;;;;;;;1.83;0.63;;;;;;;;;;5074517;28;20543;-59
2022/09/19 12:46:14;;;;;;;10.20;4.67;;;;;;;;;;5074557;28;20479;-57
2022/09/19 12:48:47;;;;;;;1.40;0.80;;;;;;;;;;5074254;28;20486;-57
2022/09/19 12:51:16;;;;;;;1.10;0.80;;;;;;;;;;5074549;28;20487;-59
2022/09/19 12:53:45;;;;;;;0.70;0.63;;;;;;;;;;5074377;28;20877;-50
2022/09/19 12:56:15;;;;;;;2.03;0.70;;;;;;;;;;5074240;28;20458;-59
2022/09/19 12:58:49;;;;;;;2.60;0.70;;;;;;;;;;5074163;28;20443;-55
2022/09/19 13:01:21;;;;;;;1.97;0.87;;;;;;;;;;5074139;28;20499;-58
2022/09/19 13:03:51;;;;;;;1.40;1.00;;;;;;;;;;5073936;28;20538;-62
2022/09/19 13:06:21;;;;;;;1.80;0.70;;;;;;;;;;5073747;28;20447;-61
2022/09/19 13:08:52;;;;;;;1.30;0.73;;;;;;;;;;5072926;28;20893;-61
2022/09/19 13:11:24;;;;;;;1.00;0.90;;;;;;;;;;5074026;28;20451;-61
2022/09/19 13:13:53;;;;;;;1.37;0.80;;;;;;;;;;5073854;28;20514;-61
2022/09/19 13:16:24;;;;;;;1.10;0.97;;;;;;;;;;5073743;28;20770;-61
2022/09/19 13:24:20;;;;;;;3.23;2.93;;;;;;;;;;5073415;28;20443;-61
2022/09/19 13:26:54;;;;;;;3.20;1.83;;;;;;;;;;5073654;28;20447;-61
2022/09/19 13:29:37;;;;;;;3.30;3.10;;;;;;;;;;5073739;28;20455;-61
2022/09/19 13:32:10;;;;;;;1.60;1.50;;;;;;;;;;5073322;28;20549;-61
2022/09/19 13:34:40;;;;;;;1.70;1.60;;;;;;;;;;5073381;28;20538;-61
2022/09/19 13:37:25;;;;;;;1.80;1.47;;;;;;;;;;5073547;28;20455;-61
2022/09/19 13:39:57;;;;;;;2.90;1.47;;;;;;;;;;5073595;28;20443;-60
2022/09/19 13:42:26;;;;;;;1.50;1.40;;;;;;;;;;5073346;28;20447;-61
2022/09/19 13:45:01;;;;;;;1.30;1.20;;;;;;;;;;5072858;28;20449;-61
2022/09/19 13:47:31;;;;;;;5.90;1.33;;;;;;;;;;5073188;28;20479;-61
2022/09/19 13:50:04;;;;;;;1.60;1.50;;;;;;;;;;5073261;28;20448;-61
2022/09/19 13:52:32;;;;;;;2.13;2.00;;;;;;;;;;5073255;28;20861;-61
2022/09/19 13:55:03;;;;;;;2.00;1.90;;;;;;;;;;5073399;28;20497;-61
2022/09/19 13:57:31;;;;;;;1.93;1.27;;;;;;;;;;5072926;28;20451;-61
2022/09/19 14:00:00;;;;;;;2.23;1.60;;;;;;;;;;5073089;28;20447;-61
2022/09/19 14:02:28;;;;;;;1.73;1.33;;;;;;;;;;5073128;28;20458;-61
2022/09/19 14:05:01;;;;;;;1.20;1.07;;;;;;;;;;5072957;28;20447;-61
2022/09/19 14:07:31;;;;;;;1.17;0.93;;;;;;;;;;5072870;28;20974;-61
2022/09/19 14:10:00;;;;;;;1.30;0.93;;;;;;;;;;5072811;28;20950;-61
2022/09/19 14:12:46;;;;;;;2.33;1.20;;;;;;;;;;5073078;28;20509;-61
2022/09/19 14:15:31;;;;;;;1.30;1.10;;;;;;;;;;5073086;28;20504;-61
2022/09/19 14:18:25;;;;;;;1.63;1.10;;;;;;;;;;5072825;28;20826;-61
2022/09/19 14:20:55;;;;;;;1.90;1.50;;;;;;;;;;5072943;28;20483;-61
2022/09/19 14:23:23;;;;;;;1.47;1.23;;;;;;;;;;5072734;28;20452;-61
2022/09/19 14:25:55;;;;;;;3.40;2.10;;;;;;;;;;5073209;28;20452;-61
2022/09/19 14:28:37;;;;;;;1.67;1.57;;;;;;;;;;5072708;28;20483;-60
2022/09/19 14:31:11;;;;;;;1.30;1.20;;;;;;;;;;5072692;28;20543;-61
2022/09/19 14:33:55;;;;;;;1.20;1.10;;;;;;;;;;5072793;28;20857;-61
2022/09/19 14:36:28;;;;;;;1.33;1.23;;;;;;;;;;5072407;28;20847;-61
2022/09/19 14:39:05;;;;;;;1.30;1.20;;;;;;;;;;5072778;28;20447;-61
2022/09/19 14:41:41;;;;;;;2.90;1.70;;;;;;;;;;5072864;28;20451;-61
2022/09/19 14:44:31;;;;;;;1.60;1.20;;;;;;;;;;5072842;28;20455;-61
2022/09/19 14:47:00;;;;;;;1.50;1.20;;;;;;;;;;5072335;28;20451;-61
2022/09/19 14:49:28;;;;;;;1.37;1.27;;;;;;;;;;5072300;28;20486;-61
2022/09/19 14:52:00;;;;;;;1.87;1.63;;;;;;;;;;5072667;28;20451;-61
2022/09/19 14:54:32;;;;;;;2.00;1.90;;;;;;;;;;5072649;28;20556;-61
2022/09/19 14:57:01;;;;;;;2.30;1.50;;;;;;;;;;5072518;28;20538;-61
2022/09/19 14:59:30;;;;;;;2.57;1.80;;;;;;;;;;5072472;28;20818;-61
2022/09/19 15:02:06;;;;;;;2.40;2.30;;;;;;;;;;5072370;28;20534;-61
2022/09/19 15:04:34;;;;;;;4.63;4.23;;;;;;;;;;5072662;28;20500;-62
2022/09/19 15:07:04;;;;;;;3.77;3.57;;;;;;;;;;5072494;28;20479;-61
2022/09/19 15:09:32;;;;;;;2.63;2.30;;;;;;;;;;5072661;28;20502;-61
2022/09/19 15:12:00;;;;;;;2.93;2.13;;;;;;;;;;5072314;28;20479;-61
2022/09/19 15:14:29;;;;;;;2.57;2.37;;;;;;;;;;5072282;28;20447;-61
2022/09/19 15:17:09;;;;;;;2.73;2.53;;;;;;;;;;5072518;28;20845;-61
2022/09/19 15:19:37;;;;;;;1.80;1.70;;;;;;;;;;5072746;28;20451;-61
2022/09/19 15:22:06;;;;;;;1.30;1.20;;;;;;;;;;5072303;28;20477;-61
2022/09/19 15:24:33;;;;;;;2.37;1.40;;;;;;;;;;5072093;28;20931;-61
2022/09/19 15:27:00;;;;;;;1.90;1.10;;;;;;;;;;5072037;28;20453;-61